Time;durP1;ratioP1;P1;durP2;ratioP2;P2;SDS_P1;SDS_P2;PMS_P1;PMS_P2;Temp;Humidity;BMP_temperature;BMP_pressure;BME280_temperature;BME280_humidity;BME280_pressure;Samples;Min_cycle;Max_cycle;Signal;HPM_P1;HPM_P2
2022/04/01 00:00:08;;;;;;;1999.90;999.90;;;2.80;99.90;;;;;;5014774;28;20177;-73
2022/04/01 00:02:34;;;;;;;1999.90;999.90;;;2.80;99.90;;;;;;5014723;28;20283;-72
2022/04/01 00:04:59;;;;;;;1999.90;999.90;;;2.80;99.90;;;;;;5014350;28;20239;-72
2022/04/01 00:07:25;;;;;;;1999.90;999.90;;;2.80;99.90;;;;;;5014727;28;20169;-70
2022/04/01 00:09:51;;;;;;;1999.90;999.90;;;2.80;99.90;;;;;;5014566;28;20166;-72
2022/04/01 00:12:16;;;;;;;1999.90;999.90;;;2.80;99.90;;;;;;5014518;28;20181;-72
2022/04/01 00:14:42;;;;;;;1999.90;999.90;;;2.80;99.90;;;;;;5014207;28;20192;-71
2022/04/01 00:17:08;;;;;;;1999.90;999.90;;;2.80;99.90;;;;;;5014463;28;20415;-71
2022/04/01 00:19:34;;;;;;;1999.90;999.90;;;2.80;99.90;;;;;;5014468;28;20983;-72
2022/04/01 00:22:00;;;;;;;1999.90;999.90;;;2.90;99.90;;;;;;5014304;28;20436;-72
2022/04/01 00:24:25;;;;;;;1999.90;999.90;;;2.90;99.90;;;;;;5014078;28;20243;-72
2022/04/01 00:26:51;;;;;;;1999.90;999.90;;;2.90;99.90;;;;;;5014185;28;20208;-72
2022/04/01 00:29:16;;;;;;;1999.90;999.90;;;2.90;99.90;;;;;;5014550;28;20176;-72
2022/04/01 00:31:46;;;;;;;1999.90;999.90;;;2.90;99.90;;;;;;5014177;28;20169;-72
2022/04/01 00:34:18;;;;;;;1999.90;999.90;;;2.90;99.90;;;;;;5013754;28;20185;-71
2022/04/01 00:36:45;;;;;;;1999.90;999.90;;;2.90;99.90;;;;;;5014148;28;20544;-72
2022/04/01 00:39:12;;;;;;;1999.90;999.90;;;2.90;99.90;;;;;;5014050;28;20540;-72
2022/04/01 00:41:38;;;;;;;1999.90;999.90;;;2.90;99.90;;;;;;5013962;28;20762;-72
2022/04/01 00:44:22;;;;;;;1999.90;999.90;;;2.90;99.90;;;;;;5013440;28;20292;-71
2022/04/01 00:46:54;;;;;;;1999.90;999.90;;;2.90;99.90;;;;;;5014001;28;20216;-71
2022/04/01 00:49:20;;;;;;;1999.90;999.90;;;2.90;99.90;;;;;;5013868;28;20168;-72
2022/04/01 00:51:48;;;;;;;1999.90;999.90;;;3.00;99.90;;;;;;5013788;28;20173;-71
2022/04/01 00:54:14;;;;;;;1999.90;999.90;;;3.00;99.90;;;;;;5013327;28;20247;-72
2022/04/01 00:56:40;;;;;;;1999.90;999.90;;;3.10;99.90;;;;;;5013792;28;20185;-72
2022/04/01 00:59:08;;;;;;;1999.90;999.90;;;3.20;99.90;;;;;;5013654;28;20200;-72
2022/04/01 01:01:35;;;;;;;1999.90;999.90;;;3.30;99.90;;;;;;5013619;28;20288;-72
2022/04/01 01:04:05;;;;;;;1999.90;999.90;;;3.30;99.90;;;;;;5012896;28;20185;-71
2022/04/01 01:06:33;;;;;;;1999.90;999.90;;;3.40;99.90;;;;;;5013549;28;20169;-72
2022/04/01 01:09:00;;;;;;;1999.90;999.90;;;3.50;99.90;;;;;;5013483;28;20164;-71
2022/04/01 01:11:26;;;;;;;1999.90;999.90;;;3.60;99.90;;;;;;5013497;28;20408;-71
2022/04/01 01:13:52;;;;;;;1999.90;999.90;;;3.60;99.90;;;;;;5013282;28;20196;-72
2022/04/01 01:16:19;;;;;;;1999.90;999.90;;;3.60;99.90;;;;;;5013325;28;20168;-72
2022/04/01 01:18:45;;;;;;;1999.90;999.90;;;3.60;99.90;;;;;;5013352;28;20208;-71
2022/04/01 01:21:11;;;;;;;1999.90;999.90;;;3.60;99.90;;;;;;5013228;28;20238;-71
2022/04/01 01:23:38;;;;;;;1999.90;999.90;;;3.60;99.90;;;;;;5013236;28;20189;-72
2022/04/01 01:26:03;;;;;;;1999.90;999.90;;;3.70;99.90;;;;;;5012912;28;20176;-72
2022/04/01 01:28:29;;;;;;;1999.90;999.90;;;3.70;99.90;;;;;;5013134;28;20169;-72
2022/04/01 01:30:55;;;;;;;1999.90;999.90;;;3.80;99.90;;;;;;5013237;28;20665;-72
2022/04/01 01:33:21;;;;;;;1999.90;999.90;;;3.80;99.90;;;;;;5012998;28;20439;-72
2022/04/01 01:35:47;;;;;;;1999.90;999.90;;;3.80;99.90;;;;;;5012649;28;20784;-71
2022/04/01 01:38:17;;;;;;;1999.90;999.90;;;3.80;99.90;;;;;;5012900;28;20169;-72
2022/04/01 01:40:43;;;;;;;1999.90;999.90;;;3.80;99.90;;;;;;5012968;28;20173;-72
2022/04/01 01:43:09;;;;;;;1999.90;999.90;;;3.80;99.90;;;;;;5012595;28;20542;-72
2022/04/01 01:45:35;;;;;;;1999.90;999.90;;;3.80;99.90;;;;;;5013131;28;20486;-72
2022/04/01 01:48:00;;;;;;;1999.90;999.90;;;3.70;99.90;;;;;;5012857;28;20169;-71
2022/04/01 01:56:05;;;;;;;1999.90;999.90;;;3.70;99.90;;;;;;5010173;28;20181;-72
2022/04/01 01:58:30;;;;;;;1999.90;999.90;;;3.70;99.90;;;;;;5012576;28;20217;-72
2022/04/01 02:00:56;;;;;;;1999.90;999.90;;;3.70;99.90;;;;;;5012532;28;20204;-72
2022/04/01 02:03:22;;;;;;;1999.90;999.90;;;3.60;99.90;;;;;;5012529;28;20238;-72
2022/04/01 02:05:50;;;;;;;1999.90;999.90;;;3.60;99.90;;;;;;5012247;28;20172;-72
2022/04/01 02:08:15;;;;;;;1999.90;999.90;;;3.60;99.90;;;;;;5011847;28;20684;-71
2022/04/01 02:10:41;;;;;;;1999.90;999.90;;;3.50;99.90;;;;;;5012438;28;20172;-71
2022/04/01 02:13:07;;;;;;;1999.90;999.90;;;3.50;99.90;;;;;;5012325;28;20173;-72
2022/04/01 02:15:32;;;;;;;1999.90;999.90;;;3.50;99.90;;;;;;5011511;28;20192;-71
2022/04/01 02:17:58;;;;;;;1999.90;999.90;;;3.50;99.90;;;;;;5012277;28;20169;-72
2022/04/01 02:20:25;;;;;;;1999.90;999.90;;;3.50;99.90;;;;;;5012358;28;20169;-72
2022/04/01 02:22:53;;;;;;;1999.90;999.90;;;3.50;99.90;;;;;;5012243;28;20204;-71
2022/04/01 02:25:19;;;;;;;1999.90;999.90;;;3.50;99.90;;;;;;5012097;28;20264;-72
2022/04/01 02:27:44;;;;;;;1999.90;999.90;;;3.50;99.90;;;;;;5012207;28;20765;-72
2022/04/01 02:30:10;;;;;;;1999.90;999.90;;;3.50;99.90;;;;;;5011353;28;20175;-72
2022/04/01 02:32:42;;;;;;;1999.90;999.90;;;3.50;99.90;;;;;;5012225;28;20257;-72
2022/04/01 02:35:09;;;;;;;1999.90;999.90;;;3.50;99.90;;;;;;5011845;28;20189;-72
2022/04/01 02:37:35;;;;;;;1999.90;999.90;;;3.60;99.90;;;;;;5012302;28;20173;-71
2022/04/01 02:40:04;;;;;;;1999.90;999.90;;;3.50;99.90;;;;;;5012175;28;20198;-71
2022/04/01 02:42:30;;;;;;;1999.90;999.90;;;3.40;99.90;;;;;;5011991;28;20573;-72
2022/04/01 02:44:56;;;;;;;1999.90;999.90;;;3.40;99.90;;;;;;5011574;28;20197;-71
2022/04/01 02:47:21;;;;;;;1999.90;999.90;;;3.40;99.90;;;;;;5012079;28;20504;-71
2022/04/01 02:49:47;;;;;;;1999.90;999.90;;;3.30;99.90;;;;;;5012129;28;20244;-71
2022/04/01 02:52:13;;;;;;;1999.90;999.90;;;3.30;99.90;;;;;;5012133;28;20176;-70
2022/04/01 02:54:39;;;;;;;1999.90;999.90;;;3.30;99.90;;;;;;5011961;28;20563;-71
2022/04/01 02:57:05;;;;;;;1999.90;999.90;;;3.30;99.90;;;;;;5012082;28;20177;-71
2022/04/01 02:59:30;;;;;;;1999.90;999.90;;;3.30;99.90;;;;;;5011973;28;20206;-71
2022/04/01 03:01:56;;;;;;;1999.90;999.90;;;3.30;99.90;;;;;;5011886;28;20193;-71
2022/04/01 03:04:22;;;;;;;1999.90;999.90;;;3.20;99.90;;;;;;5011572;28;20185;-71
2022/04/01 03:06:48;;;;;;;1999.90;999.90;;;3.20;99.90;;;;;;5011941;28;20165;-71
2022/04/01 03:09:14;;;;;;;1999.90;999.90;;;3.20;99.90;;;;;;5011906;28;20505;-72
2022/04/01 03:11:41;;;;;;;1999.90;999.90;;;3.20;99.90;;;;;;5011854;28;20411;-71
2022/04/01 03:14:09;;;;;;;1999.90;999.90;;;3.20;99.90;;;;;;5011441;28;20220;-71
2022/04/01 03:16:36;;;;;;;1999.90;999.90;;;3.20;99.90;;;;;;5011840;28;20219;-71
2022/04/01 03:19:02;;;;;;;1999.90;999.90;;;3.00;99.90;;;;;;5011865;28;20180;-71
2022/04/01 03:21:29;;;;;;;1999.90;999.90;;;3.10;99.90;;;;;;5011724;28;20243;-70
2022/04/01 03:23:55;;;;;;;1999.90;999.90;;;3.00;99.90;;;;;;5011695;28;20177;-71
2022/04/01 03:26:21;;;;;;;1999.90;999.90;;;2.90;99.90;;;;;;5011502;28;20165;-71
2022/04/01 03:28:48;;;;;;;1999.90;999.90;;;3.00;99.90;;;;;;5015114;28;20173;-72
2022/04/01 03:31:15;;;;;;;1999.90;999.90;;;3.00;99.90;;;;;;5015260;28;20412;-70
2022/04/01 03:33:44;;;;;;;1999.90;999.90;;;2.90;99.90;;;;;;5015254;28;20197;-71
2022/04/01 03:36:11;;;;;;;1999.90;999.90;;;2.90;99.90;;;;;;5015043;28;20177;-71
2022/04/01 03:38:38;;;;;;;1999.90;999.90;;;2.90;99.90;;;;;;5015192;28;20180;-71
2022/04/01 03:41:05;;;;;;;1999.90;999.90;;;2.90;99.90;;;;;;5015081;28;20175;-71
2022/04/01 03:43:34;;;;;;;1999.90;999.90;;;2.90;99.90;;;;;;5014945;28;20548;-71
2022/04/01 03:46:05;;;;;;;1999.90;999.90;;;2.90;99.90;;;;;;5014850;28;20161;-71
2022/04/01 03:48:45;;;;;;;1999.90;999.90;;;2.90;99.90;;;;;;5015074;28;20169;-71
2022/04/01 03:51:19;;;;;;;1999.90;999.90;;;2.90;99.90;;;;;;5014963;28;20170;-71
2022/04/01 03:53:57;;;;;;;1999.90;999.90;;;2.90;99.90;;;;;;5014783;28;20188;-71
2022/04/01 03:56:29;;;;;;;1999.90;999.90;;;2.90;99.90;;;;;;5014679;28;20173;-70
2022/04/01 03:59:00;;;;;;;1999.90;999.90;;;2.90;99.90;;;;;;5014865;28;20280;-71
2022/04/01 04:01:27;;;;;;;1999.90;999.90;;;2.80;99.90;;;;;;5014770;28;20189;-71
2022/04/01 04:03:53;;;;;;;1999.90;999.90;;;2.80;99.90;;;;;;5014719;28;20588;-71
2022/04/01 04:06:19;;;;;;;1999.90;999.90;;;2.70;99.90;;;;;;5014381;28;20196;-71
2022/04/01 04:08:46;;;;;;;1999.90;999.90;;;2.80;99.90;;;;;;5014662;28;20173;-70
2022/04/01 04:11:12;;;;;;;1999.90;999.90;;;2.80;99.90;;;;;;5014602;28;20177;-71
2022/04/01 04:13:38;;;;;;;1999.90;999.90;;;2.70;99.90;;;;;;5014520;28;20201;-71
2022/04/01 04:16:14;;;;;;;1999.90;999.90;;;2.70;99.90;;;;;;5014275;28;20427;-71
2022/04/01 04:18:47;;;;;;;1999.90;999.90;;;2.70;99.90;;;;;;5014492;28;20537;-71
2022/04/01 04:21:39;;;;;;;1999.90;999.90;;;2.70;99.90;;;;;;5014397;28;20197;-71
2022/04/01 04:24:09;;;;;;;1999.90;999.90;;;2.70;99.90;;;;;;5014047;28;20185;-70
2022/04/01 04:26:47;;;;;;;1999.90;999.90;;;2.70;99.90;;;;;;5014364;28;20169;-71
2022/04/01 04:29:15;;;;;;;1999.90;999.90;;;2.60;99.90;;;;;;5014307;28;20169;-71
2022/04/01 04:31:59;;;;;;;1999.90;999.90;;;2.50;99.90;;;;;;5014242;28;20171;-71
2022/04/01 04:34:34;;;;;;;1999.90;999.90;;;2.40;99.90;;;;;;5013858;28;20213;-71
2022/04/01 04:37:02;;;;;;;1999.90;999.90;;;2.50;99.90;;;;;;5014183;28;20164;-71
2022/04/01 04:39:33;;;;;;;1999.90;999.90;;;2.50;99.90;;;;;;5013110;28;20243;-70
2022/04/01 04:42:03;;;;;;;1999.90;999.90;;;2.50;99.90;;;;;;5013960;28;20677;-71
2022/04/01 04:44:30;;;;;;;1999.90;999.90;;;2.50;99.90;;;;;;5013570;28;20204;-71
2022/04/01 04:47:02;;;;;;;1999.90;999.90;;;2.50;99.90;;;;;;5013973;28;20188;-71
2022/04/01 04:49:28;;;;;;;1999.90;999.90;;;2.50;99.90;;;;;;5013840;28;20212;-71
2022/04/01 04:51:56;;;;;;;1999.90;999.90;;;2.50;99.90;;;;;;5013784;28;20189;-71
2022/04/01 04:54:22;;;;;;;1999.90;999.90;;;2.40;99.90;;;;;;5013451;28;20193;-71
2022/04/01 04:56:49;;;;;;;1999.90;999.90;;;2.40;99.90;;;;;;5014022;28;20553;-71
2022/04/01 04:59:20;;;;;;;1999.90;999.90;;;2.40;99.90;;;;;;5013704;28;20169;-71
2022/04/01 05:02:01;;;;;;;1999.90;999.90;;;2.40;99.90;;;;;;5013718;28;20193;-71
2022/04/01 05:04:45;;;;;;;1999.90;999.90;;;2.40;99.90;;;;;;5013221;28;20196;-71
2022/04/01 05:07:38;;;;;;;1999.90;999.90;;;2.50;99.90;;;;;;5013601;28;20165;-70
2022/04/01 05:10:16;;;;;;;1999.90;999.90;;;2.60;99.90;;;;;;5013533;28;20252;-71
2022/04/01 05:13:02;;;;;;;1999.90;999.90;;;2.50;99.90;;;;;;5013414;28;20173;-70
2022/04/01 05:15:32;;;;;;;1999.90;999.90;;;2.50;99.90;;;;;;5011854;28;20209;-71
2022/04/01 05:18:12;;;;;;;1999.90;999.90;;;2.50;99.90;;;;;;5013581;28;20157;-71
2022/04/01 05:20:55;;;;;;;1999.90;999.90;;;2.50;99.90;;;;;;5013315;28;20169;-71
2022/04/01 05:23:50;;;;;;;1999.90;999.90;;;2.50;99.90;;;;;;5013182;28;20181;-71
2022/04/01 05:26:23;;;;;;;1999.90;999.90;;;2.50;99.90;;;;;;5013010;28;20166;-71
2022/04/01 05:28:53;;;;;;;1999.90;999.90;;;2.50;99.90;;;;;;5013276;28;20311;-71
2022/04/01 05:31:25;;;;;;;1999.90;999.90;;;2.50;99.90;;;;;;5013154;28;20169;-71
2022/04/01 05:34:09;;;;;;;1999.90;999.90;;;2.50;99.90;;;;;;5012969;28;20207;-70
2022/04/01 05:36:36;;;;;;;1999.90;999.90;;;2.50;99.90;;;;;;5013005;28;20676;-71
2022/04/01 05:39:03;;;;;;;1999.90;999.90;;;2.40;99.90;;;;;;5013012;28;20169;-71
2022/04/01 05:41:30;;;;;;;1999.90;999.90;;;2.40;99.90;;;;;;5012898;28;20279;-71
2022/04/01 05:43:57;;;;;;;1999.90;999.90;;;2.50;99.90;;;;;;5012824;28;20197;-70
2022/04/01 05:46:25;;;;;;;1999.90;999.90;;;2.50;99.90;;;;;;5012716;28;20537;-70
2022/04/01 05:48:53;;;;;;;1999.90;999.90;;;2.50;99.90;;;;;;5012866;28;20180;-71
2022/04/01 05:51:19;;;;;;;1999.90;999.90;;;2.50;99.90;;;;;;5012689;28;20593;-71
2022/04/01 05:53:46;;;;;;;1999.90;999.90;;;2.50;99.90;;;;;;5012722;28;20227;-71
2022/04/01 05:56:14;;;;;;;1999.90;999.90;;;2.40;99.90;;;;;;5012552;28;20176;-71
2022/04/01 05:58:40;;;;;;;1999.90;999.90;;;2.40;99.90;;;;;;5012623;28;20175;-70
2022/04/01 06:01:18;;;;;;;1999.90;999.90;;;2.40;99.90;;;;;;5012576;28;20173;-71
2022/04/01 06:04:16;;;;;;;1999.90;999.90;;;2.50;99.90;;;;;;5012528;28;20666;-70
2022/04/01 06:06:43;;;;;;;1999.90;999.90;;;2.50;99.90;;;;;;5005009;28;20208;-71
2022/04/01 06:09:25;;;;;;;1999.90;999.90;;;2.50;99.90;;;;;;5011263;28;20205;-71
2022/04/01 06:11:53;;;;;;;1999.90;999.90;;;2.40;99.90;;;;;;5012511;28;20247;-71
2022/04/01 06:14:24;;;;;;;1999.90;999.90;;;2.50;99.90;;;;;;5012043;28;20193;-71
2022/04/01 06:16:58;;;;;;;1999.90;999.90;;;2.50;99.90;;;;;;5012417;28;20169;-70
2022/04/01 06:19:28;;;;;;;1999.90;999.90;;;2.40;99.90;;;;;;5012391;28;20169;-71
2022/04/01 06:22:08;;;;;;;1999.90;999.90;;;2.50;99.90;;;;;;5012218;28;20223;-71
2022/04/01 06:24:52;;;;;;;1999.90;999.90;;;2.50;99.90;;;;;;5012091;28;20192;-71
2022/04/01 06:27:25;;;;;;;1999.90;999.90;;;2.40;99.90;;;;;;5012352;28;20226;-71
2022/04/01 06:30:08;;;;;;;1999.90;999.90;;;2.40;99.90;;;;;;5012271;28;20181;-71
2022/04/01 06:32:55;;;;;;;1999.90;999.90;;;2.50;99.90;;;;;;5012262;28;20247;-71
2022/04/01 06:35:44;;;;;;;1999.90;999.90;;;2.50;99.90;;;;;;5011903;28;20268;-70
2022/04/01 06:38:13;;;;;;;1999.90;999.90;;;2.40;99.90;;;;;;5012197;28;20196;-71
2022/04/01 06:40:50;;;;;;;1999.90;999.90;;;2.50;99.90;;;;;;5012207;28;20176;-71
2022/04/01 06:43:17;;;;;;;1999.90;999.90;;;2.50;99.90;;;;;;5011997;28;20204;-70
2022/04/01 06:45:42;;;;;;;1999.90;999.90;;;2.50;99.90;;;;;;5011902;28;20184;-71
2022/04/01 06:48:08;;;;;;;1999.90;999.90;;;2.60;99.90;;;;;;5012103;28;20164;-71
2022/04/01 06:50:34;;;;;;;1999.90;999.90;;;2.50;99.90;;;;;;5012069;28;20160;-71
2022/04/01 06:53:00;;;;;;;1999.90;999.90;;;2.50;99.90;;;;;;5012092;28;20408;-71
2022/04/01 06:55:26;;;;;;;1999.90;999.90;;;2.50;99.90;;;;;;5011697;28;20482;-71
2022/04/01 06:57:52;;;;;;;1999.90;999.90;;;2.60;99.90;;;;;;5011995;28;20769;-71
2022/04/01 07:00:18;;;;;;;1999.90;999.90;;;2.60;99.90;;;;;;5011959;28;20164;-71
2022/04/01 07:02:44;;;;;;;1999.90;999.90;;;2.60;99.90;;;;;;5013757;28;20254;-71
2022/04/01 07:05:11;;;;;;;1999.90;999.90;;;2.70;99.90;;;;;;5015490;28;20510;-71
2022/04/01 07:07:38;;;;;;;1999.90;999.90;;;2.70;99.90;;;;;;5015835;28;20177;-71
2022/04/01 07:10:05;;;;;;;1999.90;999.90;;;2.80;99.90;;;;;;5015770;28;20188;-70
2022/04/01 07:12:32;;;;;;;1999.90;999.90;;;2.70;99.90;;;;;;5015729;28;20181;-72
2022/04/01 07:14:58;;;;;;;1999.90;999.90;;;2.80;99.90;;;;;;5015474;28;20207;-70
2022/04/01 07:17:25;;;;;;;1999.90;999.90;;;2.70;99.90;;;;;;5015738;28;20612;-71
2022/04/01 07:19:51;;;;;;;1999.90;999.90;;;2.70;99.90;;;;;;5015537;28;20216;-71
2022/04/01 07:22:17;;;;;;;1999.90;999.90;;;2.70;99.90;;;;;;5015487;28;20647;-71
2022/04/01 07:24:43;;;;;;;1999.90;999.90;;;2.70;99.90;;;;;;5015145;28;20288;-71
2022/04/01 07:27:10;;;;;;;1999.90;999.90;;;2.70;99.90;;;;;;5015532;28;20249;-71
2022/04/01 07:29:35;;;;;;;1999.90;999.90;;;2.70;99.90;;;;;;5015465;28;20703;-71
2022/04/01 07:34:45;;;;;;;1999.90;999.90;;;2.80;99.90;;;;;;5014873;28;20255;-71
2022/04/01 07:37:11;;;;;;;1999.90;999.90;;;2.80;99.90;;;;;;5015275;28;20177;-71
2022/04/01 07:39:37;;;;;;;1999.90;999.90;;;2.80;99.90;;;;;;5015236;28;20169;-71
2022/04/01 07:42:05;;;;;;;1999.90;999.90;;;2.70;99.90;;;;;;5015112;28;20196;-71
2022/04/01 07:44:31;;;;;;;1999.90;999.90;;;2.70;99.90;;;;;;5015126;28;20204;-71
2022/04/01 07:46:56;;;;;;;1999.90;999.90;;;2.80;99.90;;;;;;5015141;28;20608;-72
2022/04/01 07:49:22;;;;;;;1999.90;999.90;;;2.80;99.90;;;;;;5015240;28;20893;-72
2022/04/01 07:51:48;;;;;;;1999.90;999.90;;;2.80;99.90;;;;;;5015281;28;20180;-72
2022/04/01 07:54:15;;;;;;;1999.90;999.90;;;2.80;99.90;;;;;;5014819;28;20439;-72
2022/04/01 07:56:42;;;;;;;1999.90;999.90;;;2.80;99.90;;;;;;5014949;28;20465;-72
2022/04/01 07:59:09;;;;;;;1999.90;999.90;;;2.90;99.90;;;;;;5014983;28;20180;-72
2022/04/01 08:01:35;;;;;;;1999.90;999.90;;;2.90;99.90;;;;;;5014810;28;20224;-71
2022/04/01 08:04:01;;;;;;;1999.90;999.90;;;2.90;99.90;;;;;;5014381;28;20189;-71
2022/04/01 08:06:27;;;;;;;1999.90;999.90;;;2.80;99.90;;;;;;5014730;28;20173;-72
2022/04/01 08:08:55;;;;;;;1999.90;999.90;;;2.80;99.90;;;;;;5014873;28;20231;-71
2022/04/01 08:11:22;;;;;;;1999.90;999.90;;;2.80;99.90;;;;;;5014787;28;20177;-71
2022/04/01 08:13:48;;;;;;;1999.90;999.90;;;2.80;99.90;;;;;;5013450;28;20678;-72
2022/04/01 08:16:14;;;;;;;1999.90;999.90;;;2.80;99.90;;;;;;5013066;28;20184;-72
2022/04/01 08:18:39;;;;;;;1999.90;999.90;;;2.80;99.90;;;;;;5014517;28;20169;-72
2022/04/01 08:21:07;;;;;;;1999.90;999.90;;;2.80;99.90;;;;;;5014389;28;20227;-72
2022/04/01 08:23:35;;;;;;;1999.90;999.90;;;2.90;99.90;;;;;;5014374;28;20187;-71
2022/04/01 08:26:02;;;;;;;1999.90;999.90;;;2.90;99.90;;;;;;5014304;28;20166;-71
2022/04/01 08:28:28;;;;;;;1999.90;999.90;;;2.90;99.90;;;;;;5014336;28;20169;-70
2022/04/01 08:30:53;;;;;;;1999.90;999.90;;;2.90;99.90;;;;;;5014232;28;20234;-71
2022/04/01 08:33:20;;;;;;;1999.90;999.90;;;2.90;99.90;;;;;;5014270;28;20416;-71
2022/04/01 08:35:46;;;;;;;1999.90;999.90;;;2.90;99.90;;;;;;5013902;28;20172;-71
2022/04/01 08:38:12;;;;;;;1999.90;999.90;;;2.90;99.90;;;;;;5014161;28;20173;-71
2022/04/01 08:40:38;;;;;;;1999.90;999.90;;;2.90;99.90;;;;;;5014069;28;20169;-71
2022/04/01 08:43:04;;;;;;;1999.90;999.90;;;2.80;99.90;;;;;;5013817;28;20569;-71
2022/04/01 08:45:33;;;;;;;1999.90;999.90;;;2.90;99.90;;;;;;5011198;28;20177;-70
2022/04/01 08:48:00;;;;;;;1999.90;999.90;;;2.90;99.90;;;;;;5013405;28;20495;-70
2022/04/01 08:50:26;;;;;;;1999.90;999.90;;;2.90;99.90;;;;;;5013242;28;20623;-69
2022/04/01 08:52:52;;;;;;;1999.90;999.90;;;2.90;99.90;;;;;;5008757;28;20169;-69
2022/04/01 08:55:18;;;;;;;1999.90;999.90;;;2.90;99.90;;;;;;5012090;28;20543;-70
2022/04/01 08:57:44;;;;;;;1999.90;999.90;;;2.90;99.90;;;;;;5013115;28;20661;-70
2022/04/01 09:00:30;;;;;;;1999.90;999.90;;;2.90;99.90;;;;;;5012755;28;20260;-71
2022/04/01 09:03:02;;;;;;;1999.90;999.90;;;2.90;99.90;;;;;;5005639;28;20228;-71
2022/04/01 09:05:28;;;;;;;1999.90;999.90;;;2.80;99.90;;;;;;5013056;28;20255;-70
2022/04/01 09:08:05;;;;;;;1999.90;999.90;;;2.80;99.90;;;;;;5012836;28;20169;-70
2022/04/01 09:10:48;;;;;;;1999.90;999.90;;;2.70;99.90;;;;;;5013144;28;20847;-69
2022/04/01 09:13:13;;;;;;;1999.90;999.90;;;2.60;99.90;;;;;;5012596;28;20246;-70
2022/04/01 09:15:41;;;;;;;1999.90;999.90;;;2.70;99.90;;;;;;5012858;28;20272;-70
2022/04/01 09:18:07;;;;;;;1999.90;999.90;;;2.70;99.90;;;;;;5012987;28;20634;-73
2022/04/01 09:20:48;;;;;;;1999.90;999.90;;;2.70;99.90;;;;;;5010525;28;20181;-69
2022/04/01 09:23:22;;;;;;;1999.90;999.90;;;2.70;99.90;;;;;;5007537;28;20345;-71
2022/04/01 09:25:49;;;;;;;1999.90;999.90;;;2.80;99.90;;;;;;5010715;28;20184;-72
2022/04/01 09:28:37;;;;;;;1999.90;999.90;;;2.70;99.90;;;;;;5010872;28;20566;-72
2022/04/01 09:31:03;;;;;;;1999.90;999.90;;;2.80;99.90;;;;;;5012742;28;20577;-72
2022/04/01 09:33:34;;;;;;;1999.90;999.90;;;2.70;99.90;;;;;;5012673;28;20304;-72
2022/04/01 09:36:09;;;;;;;1999.90;999.90;;;2.70;99.90;;;;;;5011974;28;20178;-72
2022/04/01 09:38:36;;;;;;;1999.90;999.90;;;2.70;99.90;;;;;;5012689;28;20176;-71
2022/04/01 09:41:04;;;;;;;1999.90;999.90;;;2.80;99.90;;;;;;5012220;28;20519;-72
2022/04/01 09:43:34;;;;;;;1999.90;999.90;;;2.80;99.90;;;;;;5011865;28;20205;-72
2022/04/01 09:46:05;;;;;;;1999.90;999.90;;;2.80;99.90;;;;;;5012178;28;20161;-72
2022/04/01 09:48:40;;;;;;;1999.90;999.90;;;2.90;99.90;;;;;;5012605;28;20172;-73
2022/04/01 09:51:09;;;;;;;1999.90;999.90;;;3.00;99.90;;;;;;5012042;28;20251;-72
2022/04/01 09:53:35;;;;;;;1999.90;999.90;;;2.90;99.90;;;;;;5011889;28;20215;-71
2022/04/01 09:56:01;;;;;;;1999.90;999.90;;;2.90;99.90;;;;;;5011312;28;20161;-71
2022/04/01 09:58:27;;;;;;;1999.90;999.90;;;2.80;99.90;;;;;;5011949;28;20208;-71
2022/04/01 10:00:53;;;;;;;1999.90;999.90;;;2.90;99.90;;;;;;5011958;28;20252;-71
2022/04/01 10:03:19;;;;;;;1999.90;999.90;;;2.80;99.90;;;;;;5012048;28;20750;-71
2022/04/01 10:05:45;;;;;;;1999.90;999.90;;;2.90;99.90;;;;;;5011526;28;20223;-71
2022/04/01 10:08:12;;;;;;;1999.90;999.90;;;3.00;99.90;;;;;;5012103;28;20170;-71
2022/04/01 10:10:41;;;;;;;1999.90;999.90;;;3.00;99.90;;;;;;5012099;28;20164;-71
2022/04/01 10:13:17;;;;;;;1999.90;999.90;;;3.00;99.90;;;;;;5011683;28;20268;-71
2022/04/01 10:15:44;;;;;;;1999.90;999.90;;;2.90;99.90;;;;;;5011814;28;20169;-71
2022/04/01 10:18:11;;;;;;;1999.90;999.90;;;2.90;99.90;;;;;;5012033;28;20223;-71
2022/04/01 10:20:38;;;;;;;1999.90;999.90;;;2.90;99.90;;;;;;5011608;28;20164;-71
2022/04/01 10:23:07;;;;;;;1999.90;999.90;;;2.90;99.90;;;;;;5011572;28;20205;-71
2022/04/01 10:25:44;;;;;;;1999.90;999.90;;;2.90;99.90;;;;;;5011520;28;20181;-71
2022/04/01 10:28:09;;;;;;;1999.90;999.90;;;2.90;99.90;;;;;;5011565;28;20692;-71
2022/04/01 10:30:35;;;;;;;1999.90;999.90;;;3.00;99.90;;;;;;5011851;28;20169;-71
2022/04/01 10:33:06;;;;;;;1999.90;999.90;;;3.00;99.90;;;;;;5011872;28;20176;-71
2022/04/01 10:35:38;;;;;;;1999.90;999.90;;;3.00;99.90;;;;;;5011181;28;20181;-71
2022/04/01 10:38:06;;;;;;;1999.90;999.90;;;3.10;99.90;;;;;;5011120;28;20223;-72
2022/04/01 10:40:37;;;;;;;1999.90;999.90;;;3.20;99.90;;;;;;5010879;28;20619;-71
2022/04/01 10:43:10;;;;;;;1999.90;999.90;;;3.20;99.90;;;;;;5011066;28;20228;-71
2022/04/01 10:45:38;;;;;;;1999.90;999.90;;;3.20;99.90;;;;;;5011549;28;20643;-71
2022/04/01 10:53:55;;;;;;;1999.90;999.90;;;3.20;99.90;;;;;;5011603;28;20722;-71
2022/04/01 10:59:17;;;;;;;1999.90;999.90;;;3.10;99.90;;;;;;5011240;28;20671;-71
2022/04/01 11:01:49;;;;;;;1999.90;999.90;;;3.00;99.90;;;;;;5011503;28;20572;-71
2022/04/01 11:04:17;;;;;;;1999.90;999.90;;;3.00;99.90;;;;;;5010974;28;20564;-71
2022/04/01 11:06:56;;;;;;;1999.90;999.90;;;3.00;99.90;;;;;;5010202;28;20207;-71
2022/04/01 11:09:41;;;;;;;1999.90;999.90;;;3.20;99.90;;;;;;5011662;28;20173;-71
2022/04/01 11:12:16;;;;;;;1999.90;999.90;;;3.30;99.90;;;;;;5010129;28;20276;-72
2022/04/01 11:14:57;;;;;;;1999.90;999.90;;;3.30;99.90;;;;;;5011333;28;20239;-72
2022/04/01 11:17:26;;;;;;;1999.90;999.90;;;3.40;99.90;;;;;;5011654;28;20256;-71
2022/04/01 11:20:12;;;;;;;1999.90;999.90;;;3.30;99.90;;;;;;5011067;28;20177;-71
2022/04/01 11:22:42;;;;;;;1999.90;999.90;;;3.30;99.90;;;;;;5011656;28;20474;-72
2022/04/01 11:25:24;;;;;;;1999.90;999.90;;;3.40;99.90;;;;;;5011060;28;20260;-73
2022/04/01 11:27:57;;;;;;;1999.90;999.90;;;3.40;99.90;;;;;;5010926;28;20173;-73
2022/04/01 11:30:34;;;;;;;1999.90;999.90;;;3.30;99.90;;;;;;5011438;28;20211;-73
2022/04/01 11:33:09;;;;;;;1999.90;999.90;;;3.40;99.90;;;;;;5011412;28;20553;-74
2022/04/01 11:35:41;;;;;;;1999.90;999.90;;;3.50;99.90;;;;;;5010597;28;20172;-73
2022/04/01 11:38:08;;;;;;;1999.90;999.90;;;3.50;99.90;;;;;;5011667;28;20670;-74
2022/04/01 11:40:36;;;;;;;1999.90;999.90;;;3.50;99.90;;;;;;5011259;28;20177;-73
2022/04/01 11:43:07;;;;;;;1999.90;999.90;;;3.60;99.90;;;;;;5010669;28;20213;-73
2022/04/01 11:45:42;;;;;;;1999.90;999.90;;;3.60;99.90;;;;;;5010943;28;20173;-73
2022/04/01 11:48:28;;;;;;;1999.90;999.90;;;3.60;99.90;;;;;;5012075;28;20643;-73
2022/04/01 11:51:02;;;;;;;1999.90;999.90;;;3.50;99.90;;;;;;5014344;28;20272;-73
2022/04/01 11:53:35;;;;;;;1999.90;999.90;;;3.60;99.90;;;;;;5014522;28;20181;-73
2022/04/01 11:56:03;;;;;;;1999.90;999.90;;;3.60;99.90;;;;;;5014014;28;20463;-73
2022/04/01 11:58:48;;;;;;;1999.90;999.90;;;3.60;99.90;;;;;;5014516;28;20252;-73
2022/04/01 12:01:16;;;;;;;1999.90;999.90;;;3.60;99.90;;;;;;5014599;28;20675;-73
2022/04/01 12:03:42;;;;;;;1999.90;999.90;;;3.60;99.90;;;;;;5013801;28;20201;-73
2022/04/01 12:08:52;;;;;;;1999.90;999.90;;;3.40;99.90;;;;;;5014419;28;20736;-74
2022/04/01 12:11:18;;;;;;;1999.90;999.90;;;3.40;99.90;;;;;;5014084;28;20260;-74
2022/04/01 12:13:53;;;;;;;1999.90;999.90;;;3.30;99.90;;;;;;5014143;28;20193;-74
2022/04/01 12:16:21;;;;;;;1999.90;999.90;;;3.30;99.90;;;;;;5014066;28;20175;-73
2022/04/01 12:18:50;;;;;;;1999.90;999.90;;;3.20;99.90;;;;;;5013830;28;20165;-73
2022/04/01 12:21:21;;;;;;;1999.90;999.90;;;3.20;99.90;;;;;;5014144;28;20628;-73
2022/04/01 12:23:48;;;;;;;1999.90;999.90;;;3.20;99.90;;;;;;5014067;28;20432;-73
2022/04/01 12:26:16;;;;;;;1999.90;999.90;;;3.20;99.90;;;;;;5013363;28;20532;-73
2022/04/01 12:28:44;;;;;;;1999.90;999.90;;;3.30;99.90;;;;;;5014094;28;20546;-74
2022/04/01 12:31:24;;;;;;;1999.90;999.90;;;3.30;99.90;;;;;;5014090;28;20228;-73
2022/04/01 12:33:53;;;;;;;1999.90;999.90;;;3.20;99.90;;;;;;5013457;28;20284;-73
2022/04/01 12:36:30;;;;;;;1999.90;999.90;;;3.20;99.90;;;;;;5013693;28;20176;-73
2022/04/01 12:39:05;;;;;;;1999.90;999.90;;;3.20;99.90;;;;;;5013917;28;20161;-73